Terminal Aerodrome Forecast
Issued by NWS

Home | Current Version | Previous Version | Text Only | Print | Product List | Glossary On
Versions: 1 2 3 4 5 6 7 8 9 10 11 12 13 14 15 16
000
FTUS43 KSGF 152300
TAFBBG
TAF
KBBG 152320Z 1600/1624 25006KT P6SM SCT040
     FM160300 31010KT P6SM BKN040
     FM160500 33006KT P6SM BKN020
     FM160800 34004KT 4SM BR OVC007
     FM161600 04005KT P6SM BKN250=

USA.gov is the U.S. government's official web portal to all federal, state and local government web resources and services.